Tulsa, OK (74171)

1:56 AM CDT on August 20, 2014 (GMT -0500)
Cherry Street | Change Station
CLOSE
Current Station
Personal Weather Station
Location: Tulsa, OK
Elevation: 743 ft
Nearby Weather Stations

Elev 743 ft 36.14 °N, 95.97 °W | Updated 1 minute ago

Partly Cloudy
Partly Cloudy
80.2 °F
Feels Like 84 °F
N
0.0
Wind Variable Wind from SSE
Gusts 0.0 mph

Today
High -- | Low -- °F
--% Chance of Precip.
Yesterday
High -- | Low -- °F
Precip. -- in
6:46 AM 8:07 PM
Waning Crescent, 24% visible
Pressure 29.84 in
Visibility 10.0 miles
Clouds Few 25000 ft
Heat Index 84 °F
Dew Point 72 °F
Humidity 75%
Rainfall 0.00 in
Snow Depth Not available.
UV 0 out of 12
Pollen 9.20 out of 12
Ozone Good
PM2.5 Good
Flu Activity Not available.
METAR KTUL 200553Z 17009KT 10SM FEW250 28/22 A2987 RMK AO2 SLP103 T02830217 10350 20283 403670206 53007

More Conditions Fewer Conditions

Pressure 29.84 in
Visibility 10.0 miles
Clouds Few 25000 ft
Heat Index 84 °F
Dew Point 72 °F
Humidity 75%
Rainfall 0.00 in
Snow Depth Not available.
UV 0 out of 12
Pollen 9.20 out of 12
Ozone Good
PM2.5 Good
Flu Activity Not available.
METAR KTUL 200553Z 17009KT 10SM FEW250 28/22 A2987 RMK AO2 SLP103 T02830217 10350 20283 403670206 53007

More Conditions Fewer Conditions

10-Day Weather Forecast

Almanac

Astronomy

Aug. 20, 2014 Rise Set
Actual Time 6:46 AM CDT 8:07 PM CDT
Civil Twilight 6:19 AM CDT 8:34 PM CDT
Nautical Twilight 5:47 AM CDT 9:06 PM CDT
Astronomical Twilight 5:13 AM CDT 9:40 PM CDT
Moon 2:30 AM CDT 4:50 PM CDT
Length of Visible Light 14h 15m
Length of Day
13h 21m
Tomorrow will be 2m 4s shorter.
Waning Crescent, 24% of the Moon is Illuminated
Today
Waning Crescent
Aug 25
New
Sep 2
First Quarter
Sep 8
Full
Sep 15
Last Quarter

Today's Extremes

State Highs State Lows

Community

WunderPhotos

Upload Photos

1,745,592 photos uploaded!

Nearby

Air Quality

  Air Quality AQ Index Pollutant
Yesterday Good
OZONE
Yesterday Good
PM2.5
Current Good
PM2.5
Current Good
OZONE
Wednesday Good
OZONE
Wednesday Good
PM2.5
Thursday Good
OZONE
Thursday Good
PM2.5
Friday Good
OZONE
Friday Good
PM2.5
Saturday Good
OZONE
Saturday Good
PM2.5
Sunday Good
OZONE
Sunday Good
PM2.5

Snow Depth

Station Depth Elevation
No new snow has been reported.

Earthquake Activity

City Distance Mag. Time & Date
Medford, Oklahoma 107 miles 2.5 7:09 AM CDT
2014-08-15
Langston, Oklahoma 67 miles 2.9 9:49 PM CDT
2014-08-14
Perry, Oklahoma 64 miles 2.7 6:20 PM CDT
2014-08-14
Perry, Oklahoma 64 miles 2.8 2:04 PM CDT
2014-08-14
Minimum magnitude displayed is 2.5.

Coastal Water Temperatures

Place Temperature
No Stations Reporting

Nearby Weather Stations